createdAt,value
2019-03-31T00:00:42.012Z,9.2
2019-03-31T00:01:43.357Z,9.1
2019-03-31T00:02:44.710Z,9.1
2019-03-31T00:03:46.154Z,9.1
2019-03-31T00:04:47.392Z,9.1
2019-03-31T00:05:48.748Z,9.0
2019-03-31T00:06:50.096Z,9.1
2019-03-31T00:07:51.438Z,9.1
2019-03-31T00:08:52.822Z,9.0
2019-03-31T00:09:54.147Z,9.0
2019-03-31T00:10:55.505Z,9.0
2019-03-31T00:11:56.863Z,9.0
2019-03-31T00:12:58.206Z,9.1
2019-03-31T00:13:59.567Z,9.1
2019-03-31T00:15:00.926Z,9.1
2019-03-31T00:16:02.267Z,9.0
2019-03-31T00:17:03.625Z,9.0
2019-03-31T00:18:04.983Z,9.1
2019-03-31T00:19:06.330Z,9.0
2019-03-31T00:20:07.676Z,9.0
2019-03-31T00:21:09.035Z,9.0
2019-03-31T00:22:10.386Z,8.9
2019-03-31T00:23:11.736Z,9.0
2019-03-31T00:24:13.102Z,8.9
2019-03-31T00:25:14.443Z,8.9
2019-03-31T00:26:15.804Z,8.9
2019-03-31T00:27:17.152Z,8.9
2019-03-31T00:28:18.503Z,8.8
2019-03-31T00:29:19.856Z,8.8
2019-03-31T00:30:21.223Z,8.7
2019-03-31T00:31:22.788Z,8.8
2019-03-31T00:32:23.899Z,8.8
2019-03-31T00:33:25.276Z,8.8
2019-03-31T00:34:26.607Z,8.8
2019-03-31T00:35:27.951Z,8.7
2019-03-31T00:36:29.298Z,8.7
2019-03-31T00:37:30.647Z,8.7
2019-03-31T00:38:32.002Z,8.7
2019-03-31T00:39:33.343Z,8.7
2019-03-31T00:40:34.709Z,8.6
2019-03-31T00:41:36.066Z,8.6
2019-03-31T00:42:37.418Z,8.6
2019-03-31T00:43:38.758Z,8.6
2019-03-31T00:44:40.109Z,8.6
2019-03-31T00:45:41.453Z,8.7
2019-03-31T00:46:42.802Z,8.6
2019-03-31T00:47:44.156Z,8.6
2019-03-31T00:48:45.497Z,8.6
2019-03-31T00:49:46.872Z,8.7
2019-03-31T00:50:48.247Z,8.6
2019-03-31T00:51:49.594Z,8.5
2019-03-31T00:52:50.949Z,8.6
2019-03-31T00:53:52.317Z,8.5
2019-03-31T00:54:53.742Z,8.5
2019-03-31T00:55:54.983Z,8.5
2019-03-31T00:56:56.342Z,8.5
2019-03-31T00:57:57.681Z,8.5
2019-03-31T00:58:59.034Z,8.4
2019-03-31T01:00:00.484Z,8.4
2019-03-31T01:01:01.693Z,8.3
2019-03-31T01:02:03.053Z,8.3
2019-03-31T01:03:04.397Z,8.4
2019-03-31T01:04:05.754Z,8.3
2019-03-31T01:05:07.106Z,8.3
2019-03-31T01:06:08.457Z,8.3
2019-03-31T01:07:09.807Z,8.2
2019-03-31T01:08:11.168Z,8.2
2019-03-31T01:09:12.515Z,8.2
2019-03-31T01:10:13.880Z,8.2
2019-03-31T01:11:15.217Z,8.2
2019-03-31T01:12:16.653Z,8.2
2019-03-31T01:13:18.001Z,8.2
2019-03-31T01:14:19.349Z,8.2
2019-03-31T01:15:20.698Z,8.3
2019-03-31T01:16:22.072Z,8.3
2019-03-31T01:17:23.415Z,8.3
2019-03-31T01:18:24.764Z,8.3
2019-03-31T01:19:26.114Z,8.3
2019-03-31T01:20:27.471Z,8.3
2019-03-31T01:21:28.822Z,8.2
2019-03-31T01:22:30.198Z,8.2
2019-03-31T01:23:31.550Z,8.2
2019-03-31T01:24:32.894Z,8.2
2019-03-31T01:25:34.262Z,8.2
2019-03-31T01:26:35.604Z,8.2
2019-03-31T01:27:36.961Z,8.1
2019-03-31T01:28:38.307Z,8.1
2019-03-31T01:29:39.657Z,8.1
2019-03-31T01:30:41.014Z,8.1
2019-03-31T01:31:50.155Z,8.1
2019-03-31T01:32:43.677Z,8.0
2019-03-31T01:33:45.024Z,8.0
2019-03-31T01:34:46.376Z,8.0
2019-03-31T01:35:47.733Z,8.0
2019-03-31T01:36:49.090Z,7.9
2019-03-31T01:37:50.436Z,8.0
2019-03-31T01:38:51.798Z,7.9
2019-03-31T01:39:53.128Z,8.0
2019-03-31T01:40:54.482Z,7.9
2019-03-31T01:41:55.824Z,7.9
2019-03-31T01:42:57.183Z,7.9
2019-03-31T01:43:58.528Z,7.9
2019-03-31T01:44:59.892Z,7.9
2019-03-31T01:46:01.245Z,8.0
2019-03-31T01:47:02.587Z,7.9
2019-03-31T01:48:03.940Z,8.0
2019-03-31T01:49:05.279Z,8.0
2019-03-31T01:50:06.637Z,8.0
2019-03-31T01:51:07.988Z,8.1
2019-03-31T01:52:09.343Z,8.1
2019-03-31T01:53:10.688Z,8.1
2019-03-31T01:54:12.036Z,8.0
2019-03-31T01:55:13.388Z,8.0
2019-03-31T01:56:14.742Z,8.0
2019-03-31T01:57:16.094Z,8.0
2019-03-31T01:58:17.443Z,8.0
2019-03-31T01:59:18.793Z,8.1
2019-03-31T02:00:20.145Z,8.0
2019-03-31T02:01:21.493Z,8.0
2019-03-31T02:02:22.859Z,8.0
2019-03-31T02:03:24.229Z,7.9
2019-03-31T02:04:25.586Z,7.9
2019-03-31T02:05:26.933Z,7.9
2019-03-31T02:06:28.306Z,7.9
2019-03-31T02:07:29.650Z,7.8
2019-03-31T02:08:31.000Z,7.8
2019-03-31T02:09:33.644Z,7.8
2019-03-31T02:10:34.985Z,7.8
2019-03-31T02:11:36.339Z,7.7
2019-03-31T02:12:37.692Z,7.7
2019-03-31T02:13:39.043Z,7.8
2019-03-31T02:14:40.395Z,7.7
2019-03-31T02:15:41.733Z,7.7
2019-03-31T02:16:43.089Z,7.7
2019-03-31T02:17:44.438Z,7.7
2019-03-31T02:18:45.789Z,7.7
2019-03-31T02:19:47.138Z,7.6
2019-03-31T02:20:48.489Z,7.6
2019-03-31T02:21:49.839Z,7.6
2019-03-31T02:22:51.259Z,7.6
2019-03-31T02:23:52.543Z,7.6
2019-03-31T02:24:53.890Z,7.6
2019-03-31T02:25:55.244Z,7.6
2019-03-31T02:26:56.593Z,7.6
2019-03-31T02:27:57.949Z,7.6
2019-03-31T02:28:59.285Z,7.6
2019-03-31T02:30:00.785Z,7.5
2019-03-31T02:31:01.951Z,7.6
2019-03-31T02:32:15.193Z,7.5
2019-03-31T02:33:04.633Z,7.5
2019-03-31T02:34:05.984Z,7.4
2019-03-31T02:35:07.337Z,7.5
2019-03-31T02:36:08.658Z,7.5
2019-03-31T02:37:10.007Z,7.5
2019-03-31T02:38:11.348Z,7.5
2019-03-31T02:39:12.697Z,7.5
2019-03-31T02:40:14.050Z,7.4
2019-03-31T02:41:15.402Z,7.4
2019-03-31T02:42:16.835Z,7.3
2019-03-31T02:43:18.189Z,7.3
2019-03-31T02:44:19.531Z,7.3
2019-03-31T02:45:20.882Z,7.3
2019-03-31T02:46:22.239Z,7.3
2019-03-31T02:47:23.590Z,7.4
2019-03-31T02:48:24.955Z,7.3
2019-03-31T02:49:26.308Z,7.2
2019-03-31T02:50:27.657Z,7.2
2019-03-31T02:51:29.010Z,7.2
2019-03-31T02:52:30.354Z,7.3
2019-03-31T02:53:31.699Z,7.2
2019-03-31T02:54:33.051Z,7.3
2019-03-31T02:55:34.396Z,7.2
2019-03-31T02:56:35.761Z,7.2
2019-03-31T02:57:37.119Z,7.3
2019-03-31T02:58:38.459Z,7.3
2019-03-31T02:59:39.845Z,7.2
2019-03-31T03:00:41.186Z,7.2
2019-03-31T03:01:42.554Z,7.2
2019-03-31T03:02:43.904Z,7.2
2019-03-31T03:03:45.246Z,7.2
2019-03-31T03:04:46.605Z,7.1
2019-03-31T03:05:47.990Z,7.1
2019-03-31T03:06:49.306Z,7.1
2019-03-31T03:07:50.688Z,7.1
2019-03-31T03:08:52.026Z,7.1
2019-03-31T03:09:53.371Z,7.0
2019-03-31T03:10:54.726Z,7.0
2019-03-31T03:11:56.084Z,7.0
2019-03-31T03:12:57.418Z,7.0
2019-03-31T03:13:58.773Z,7.1
2019-03-31T03:15:00.253Z,7.0
2019-03-31T03:16:01.430Z,6.9
2019-03-31T03:17:02.782Z,7.0
2019-03-31T03:18:04.131Z,7.0
2019-03-31T03:19:05.473Z,7.0
2019-03-31T03:20:06.845Z,7.1
2019-03-31T03:21:08.182Z,7.1
2019-03-31T03:22:09.536Z,7.1
2019-03-31T03:23:10.897Z,7.1
2019-03-31T03:24:12.241Z,7.1
2019-03-31T03:25:13.597Z,7.0
2019-03-31T03:26:14.949Z,7.0
2019-03-31T03:27:16.296Z,7.1
2019-03-31T03:28:17.646Z,7.1
2019-03-31T03:29:18.986Z,7.0
2019-03-31T03:30:20.412Z,7.0
2019-03-31T03:31:21.701Z,6.9
2019-03-31T03:32:23.030Z,6.9
2019-03-31T03:33:24.356Z,7.0
2019-03-31T03:34:25.705Z,7.0
2019-03-31T03:35:27.061Z,6.9
2019-03-31T03:36:28.411Z,7.0
2019-03-31T03:37:29.756Z,6.9
2019-03-31T03:38:31.103Z,6.9
2019-03-31T03:39:32.438Z,7.0
2019-03-31T03:40:33.774Z,6.9
2019-03-31T03:41:35.121Z,6.9
2019-03-31T03:42:36.480Z,6.9
2019-03-31T03:43:54.094Z,6.9
2019-03-31T03:44:39.149Z,6.8
2019-03-31T03:45:40.476Z,6.9
2019-03-31T03:46:41.839Z,6.9
2019-03-31T03:47:43.186Z,7.0
2019-03-31T03:48:44.527Z,6.9
2019-03-31T03:49:45.917Z,6.9
2019-03-31T03:50:47.292Z,7.0
2019-03-31T03:51:48.549Z,6.9
2019-03-31T03:52:49.902Z,6.9
2019-03-31T03:53:51.262Z,6.9
2019-03-31T03:54:52.642Z,6.8
2019-03-31T03:55:53.956Z,6.9
2019-03-31T03:56:55.305Z,6.9
2019-03-31T03:57:56.665Z,6.9
2019-03-31T03:58:58.011Z,6.8
2019-03-31T03:59:59.361Z,6.8
2019-03-31T04:01:00.706Z,6.8
2019-03-31T04:02:02.054Z,6.7
2019-03-31T04:03:03.397Z,6.6
2019-03-31T04:04:04.742Z,6.7
2019-03-31T04:05:06.093Z,6.7
2019-03-31T04:06:07.458Z,6.7
2019-03-31T04:07:08.807Z,6.7
2019-03-31T04:08:10.164Z,6.7
2019-03-31T04:09:11.513Z,6.7
2019-03-31T04:10:12.880Z,6.7
2019-03-31T04:11:14.231Z,6.7
2019-03-31T04:12:15.578Z,6.7
2019-03-31T04:13:16.958Z,6.6
2019-03-31T04:14:18.291Z,6.6
2019-03-31T04:15:19.638Z,6.7
2019-03-31T04:16:20.991Z,6.7
2019-03-31T04:17:22.327Z,6.7
2019-03-31T04:18:23.671Z,6.7
2019-03-31T04:19:25.047Z,6.7
2019-03-31T04:20:26.383Z,6.7
2019-03-31T04:21:27.807Z,6.7
2019-03-31T04:22:29.047Z,6.7
2019-03-31T04:23:30.392Z,6.7
2019-03-31T04:24:31.743Z,6.7
2019-03-31T04:25:33.093Z,6.7
2019-03-31T04:26:34.438Z,6.6
2019-03-31T04:27:35.799Z,6.7
2019-03-31T04:28:37.152Z,6.6
2019-03-31T04:29:38.501Z,6.5
2019-03-31T04:30:39.856Z,6.6
2019-03-31T04:31:41.198Z,6.6
2019-03-31T04:32:42.548Z,6.5
2019-03-31T04:33:51.702Z,6.5
2019-03-31T04:34:45.204Z,6.5
2019-03-31T04:35:46.552Z,6.6
2019-03-31T04:36:47.901Z,6.5
2019-03-31T04:37:49.251Z,6.6
2019-03-31T04:38:50.605Z,6.5
2019-03-31T04:39:51.949Z,6.6
2019-03-31T04:40:53.301Z,6.6
2019-03-31T04:41:54.639Z,6.5
2019-03-31T04:42:55.998Z,6.5
2019-03-31T04:43:57.346Z,6.4
2019-03-31T04:44:58.698Z,6.5
2019-03-31T04:46:00.057Z,6.4
2019-03-31T04:47:40.922Z,6.5
2019-03-31T04:48:42.269Z,6.5
2019-03-31T04:50:14.793Z,6.5
2019-03-31T04:51:16.138Z,6.5
2019-03-31T04:52:48.681Z,6.4
2019-03-31T04:53:50.032Z,6.4
2019-03-31T04:55:22.553Z,6.4
2019-03-31T04:56:23.906Z,6.3
2019-03-31T04:57:56.447Z,6.4
2019-03-31T04:58:57.793Z,6.3
2019-03-31T05:00:30.313Z,6.4
2019-03-31T05:01:31.657Z,6.3
2019-03-31T05:03:04.210Z,6.3
2019-03-31T05:04:05.641Z,6.3
2019-03-31T05:05:38.064Z,6.4
2019-03-31T05:06:39.417Z,6.3
2019-03-31T05:08:11.958Z,6.4
2019-03-31T05:09:13.317Z,6.3
2019-03-31T05:10:45.842Z,6.5
2019-03-31T05:11:47.183Z,6.5
2019-03-31T05:13:19.736Z,6.4
2019-03-31T05:14:21.082Z,6.4
2019-03-31T05:15:42.538Z,6.4
2019-03-31T05:16:43.898Z,6.4
2019-03-31T05:18:16.437Z,6.4
2019-03-31T05:19:17.787Z,6.5
2019-03-31T05:20:50.326Z,6.4
2019-03-31T05:21:51.672Z,6.4
2019-03-31T05:23:24.216Z,6.4
2019-03-31T05:24:25.572Z,6.3
2019-03-31T05:25:47.012Z,6.3
2019-03-31T05:26:48.362Z,6.3
2019-03-31T05:28:20.941Z,6.4
2019-03-31T05:29:22.278Z,6.3
2019-03-31T05:30:54.837Z,6.3
2019-03-31T05:31:56.190Z,6.3
2019-03-31T05:33:28.751Z,6.4
2019-03-31T05:34:30.107Z,6.3
2019-03-31T05:35:51.574Z,6.3
2019-03-31T05:36:52.922Z,6.3
2019-03-31T05:38:25.454Z,6.3
2019-03-31T05:39:26.805Z,6.3
2019-03-31T05:40:59.353Z,6.4
2019-03-31T05:42:00.714Z,6.4
2019-03-31T05:43:33.229Z,6.4
2019-03-31T05:44:34.577Z,6.4
2019-03-31T05:45:56.062Z,6.4
2019-03-31T05:46:57.408Z,6.5
2019-03-31T05:48:29.937Z,6.5
2019-03-31T05:49:31.291Z,6.4
2019-03-31T05:51:03.839Z,6.6
2019-03-31T05:52:05.192Z,6.5
2019-03-31T05:53:37.718Z,6.5
2019-03-31T05:54:39.073Z,6.5
2019-03-31T05:55:40.432Z,6.5
2019-03-31T05:56:41.797Z,6.4
2019-03-31T05:57:43.153Z,6.5
2019-03-31T05:58:44.522Z,6.5
2019-03-31T05:59:45.850Z,6.6
2019-03-31T06:00:47.222Z,6.6
2019-03-31T06:01:48.566Z,6.5
2019-03-31T06:02:49.922Z,6.7
2019-03-31T06:03:51.267Z,6.5
2019-03-31T06:04:52.628Z,6.5
2019-03-31T06:05:53.985Z,6.5
2019-03-31T06:06:55.342Z,6.6
2019-03-31T06:07:56.704Z,6.6
2019-03-31T06:08:58.054Z,6.5
2019-03-31T06:09:59.409Z,6.6
2019-03-31T06:11:00.764Z,6.6
2019-03-31T06:12:02.114Z,6.6
2019-03-31T06:13:03.477Z,6.7
2019-03-31T06:14:04.827Z,6.6
2019-03-31T06:15:06.198Z,6.7
2019-03-31T06:16:07.543Z,6.7
2019-03-31T06:17:08.894Z,6.7
2019-03-31T06:18:10.245Z,6.8
2019-03-31T06:19:11.598Z,6.7
2019-03-31T06:20:12.954Z,6.7
2019-03-31T06:21:14.307Z,6.8
2019-03-31T06:22:15.673Z,6.8
2019-03-31T06:23:17.024Z,6.9
2019-03-31T06:24:18.385Z,6.8
2019-03-31T06:25:19.745Z,6.9
2019-03-31T06:26:21.090Z,6.9
2019-03-31T06:27:22.449Z,6.9
2019-03-31T06:28:23.803Z,7.0
2019-03-31T06:29:25.169Z,7.0
2019-03-31T06:30:26.509Z,6.8
2019-03-31T06:31:27.869Z,6.9
2019-03-31T06:32:29.226Z,6.9
2019-03-31T06:33:30.587Z,7.0
2019-03-31T06:34:31.947Z,7.0
2019-03-31T06:35:33.299Z,6.9
2019-03-31T06:36:34.654Z,6.9
2019-03-31T06:37:36.010Z,7.0
2019-03-31T06:38:37.366Z,7.0
2019-03-31T06:39:38.742Z,6.9
2019-03-31T06:40:40.082Z,7.0
2019-03-31T06:41:41.445Z,7.0
2019-03-31T06:42:42.803Z,7.0
2019-03-31T06:43:44.170Z,7.2
2019-03-31T06:44:45.536Z,7.3
2019-03-31T06:45:46.880Z,7.5
2019-03-31T06:46:48.235Z,7.7
2019-03-31T06:47:49.596Z,7.9
2019-03-31T06:48:50.964Z,8.0
2019-03-31T06:49:52.320Z,8.2
2019-03-31T06:50:53.675Z,8.4
2019-03-31T06:51:55.029Z,8.7
2019-03-31T06:52:56.378Z,9.1
2019-03-31T06:53:57.744Z,9.4
2019-03-31T06:54:59.100Z,9.6
2019-03-31T06:56:00.454Z,9.8
2019-03-31T06:57:01.820Z,10.0
2019-03-31T06:58:03.178Z,10.2
2019-03-31T06:59:04.535Z,10.4
2019-03-31T07:00:05.897Z,10.6
2019-03-31T07:01:07.255Z,10.9
2019-03-31T07:02:08.651Z,11.1
2019-03-31T07:03:10.015Z,11.3
2019-03-31T07:04:11.379Z,11.4
2019-03-31T07:05:12.745Z,11.4
2019-03-31T07:06:14.105Z,11.6
2019-03-31T07:07:15.460Z,11.7
2019-03-31T07:08:16.820Z,11.7
2019-03-31T07:09:18.188Z,11.9
2019-03-31T07:10:19.551Z,12.0
2019-03-31T07:11:20.923Z,12.1
2019-03-31T07:12:22.287Z,12.2
2019-03-31T07:13:23.659Z,12.4
2019-03-31T07:14:25.023Z,12.5
2019-03-31T07:15:26.380Z,12.5
2019-03-31T07:16:27.755Z,12.6
2019-03-31T07:17:29.111Z,12.8
2019-03-31T07:18:30.471Z,12.8
2019-03-31T07:19:31.847Z,12.7
2019-03-31T07:20:33.217Z,12.9
2019-03-31T07:21:34.569Z,12.8
2019-03-31T07:22:35.937Z,12.9
2019-03-31T07:23:37.300Z,13.0
2019-03-31T07:24:38.675Z,13.1
2019-03-31T07:25:40.085Z,13.2
2019-03-31T07:26:41.419Z,13.4
2019-03-31T07:27:42.781Z,13.5
2019-03-31T07:28:44.149Z,13.7
2019-03-31T07:29:45.514Z,13.7
2019-03-31T07:30:46.865Z,13.9
2019-03-31T07:31:48.251Z,13.9
2019-03-31T07:32:49.611Z,14.0
2019-03-31T07:33:50.979Z,14.1
2019-03-31T07:34:52.345Z,14.0
2019-03-31T07:35:53.727Z,14.1
2019-03-31T07:36:55.175Z,14.2
2019-03-31T07:37:56.429Z,14.5
2019-03-31T07:38:57.822Z,14.7
2019-03-31T07:39:59.396Z,14.7
2019-03-31T07:41:12.078Z,14.7
2019-03-31T07:42:01.937Z,14.8
2019-03-31T07:43:03.194Z,15.0
2019-03-31T07:44:04.520Z,15.1
2019-03-31T07:45:05.894Z,15.4
2019-03-31T07:46:07.266Z,15.4
2019-03-31T07:47:08.625Z,15.5
2019-03-31T07:48:10.000Z,15.6
2019-03-31T07:49:11.364Z,15.6
2019-03-31T07:50:12.735Z,15.7
2019-03-31T07:51:14.104Z,15.7
2019-03-31T07:52:15.476Z,15.7
2019-03-31T07:53:17.699Z,15.7
2019-03-31T07:54:19.072Z,15.7
2019-03-31T07:55:20.446Z,15.8
2019-03-31T07:56:21.809Z,15.9
2019-03-31T07:57:23.176Z,15.9
2019-03-31T07:58:24.553Z,16.1
2019-03-31T07:59:25.996Z,16.4
2019-03-31T08:00:27.255Z,16.6
2019-03-31T08:01:28.621Z,16.7
2019-03-31T08:02:29.999Z,17.0
2019-03-31T08:03:31.374Z,17.2
2019-03-31T08:04:32.739Z,17.1
2019-03-31T08:05:37.470Z,17.2
2019-03-31T08:06:35.436Z,17.2
2019-03-31T08:07:36.815Z,17.0
2019-03-31T08:08:38.192Z,16.9
2019-03-31T08:09:39.578Z,16.7
2019-03-31T08:10:40.932Z,16.5
2019-03-31T08:11:42.301Z,16.2
2019-03-31T08:12:43.674Z,16.1
2019-03-31T08:13:45.118Z,15.8
2019-03-31T08:14:46.413Z,15.7
2019-03-31T08:15:47.786Z,15.4
2019-03-31T08:16:49.166Z,15.3
2019-03-31T08:17:50.571Z,15.0
2019-03-31T08:18:51.906Z,14.9
2019-03-31T08:19:53.271Z,14.8
2019-03-31T08:20:54.637Z,14.8
2019-03-31T08:21:56.020Z,15.0
2019-03-31T08:22:57.401Z,15.2
2019-03-31T08:23:58.791Z,15.4
2019-03-31T08:25:00.162Z,15.4
2019-03-31T08:26:01.527Z,15.8
2019-03-31T08:27:05.422Z,15.7
2019-03-31T08:28:04.227Z,15.9
2019-03-31T08:29:05.596Z,16.0
2019-03-31T08:30:06.975Z,16.1
2019-03-31T08:31:08.350Z,16.3
2019-03-31T08:32:09.732Z,16.5
2019-03-31T08:33:11.109Z,16.6
2019-03-31T08:34:12.481Z,16.7
2019-03-31T08:35:13.851Z,16.6
2019-03-31T08:36:15.217Z,16.6
2019-03-31T08:37:16.591Z,16.8
2019-03-31T08:38:18.003Z,16.9
2019-03-31T08:39:19.369Z,17.0
2019-03-31T08:40:20.744Z,17.1
2019-03-31T08:41:22.107Z,16.9
2019-03-31T08:42:23.485Z,16.9
2019-03-31T08:43:24.853Z,16.9
2019-03-31T08:44:26.232Z,17.1
2019-03-31T08:45:30.356Z,17.2
2019-03-31T08:46:28.945Z,17.4
2019-03-31T08:47:30.322Z,17.5
2019-03-31T08:48:31.693Z,17.7
2019-03-31T08:49:33.076Z,17.8
2019-03-31T08:50:34.989Z,18.0
2019-03-31T08:51:35.786Z,18.1
2019-03-31T08:52:37.163Z,18.3
2019-03-31T08:53:38.546Z,18.3
2019-03-31T08:54:39.923Z,18.2
2019-03-31T08:55:41.287Z,18.1
2019-03-31T08:56:42.682Z,18.1
2019-03-31T08:57:44.062Z,18.3
2019-03-31T08:58:45.442Z,18.3
2019-03-31T08:59:46.818Z,18.4
2019-03-31T09:00:48.185Z,18.5
2019-03-31T09:01:49.573Z,18.6
2019-03-31T09:02:50.943Z,18.5
2019-03-31T09:03:52.332Z,18.3
2019-03-31T09:04:53.694Z,18.1
2019-03-31T09:06:01.773Z,18.0
2019-03-31T09:06:56.413Z,18.0
2019-03-31T09:07:57.782Z,18.1
2019-03-31T09:08:59.161Z,18.1
2019-03-31T09:10:00.554Z,18.1
2019-03-31T09:11:01.981Z,18.0
2019-03-31T09:12:03.303Z,18.1
2019-03-31T09:13:04.676Z,18.2
2019-03-31T09:14:06.078Z,18.4
2019-03-31T09:15:07.447Z,18.4
2019-03-31T09:16:08.810Z,18.5
2019-03-31T09:17:10.199Z,18.6
2019-03-31T09:18:11.578Z,18.4
2019-03-31T09:19:12.962Z,18.3
2019-03-31T09:20:14.332Z,18.3
2019-03-31T09:21:15.714Z,18.2
2019-03-31T09:22:17.088Z,18.1
2019-03-31T09:23:18.471Z,18.1
2019-03-31T09:24:19.848Z,18.1
2019-03-31T09:25:21.227Z,18.2
2019-03-31T09:26:22.668Z,18.3
2019-03-31T09:27:23.983Z,18.1
2019-03-31T09:28:25.366Z,18.2
2019-03-31T09:29:26.732Z,18.3
2019-03-31T09:30:28.108Z,18.2
2019-03-31T09:31:29.501Z,18.0
2019-03-31T09:32:30.884Z,18.1
2019-03-31T09:33:32.262Z,18.3
2019-03-31T09:34:33.626Z,18.4
2019-03-31T09:35:35.006Z,18.5
2019-03-31T09:36:36.384Z,18.4
2019-03-31T09:37:37.770Z,18.3
2019-03-31T09:38:39.139Z,18.3
2019-03-31T09:39:40.519Z,18.4
2019-03-31T09:40:41.897Z,18.4
2019-03-31T09:41:43.276Z,18.5
2019-03-31T09:42:44.651Z,18.5
2019-03-31T09:43:46.018Z,18.5
2019-03-31T09:44:47.403Z,18.5
2019-03-31T09:45:48.773Z,18.6
2019-03-31T09:46:50.185Z,18.6
2019-03-31T09:47:51.552Z,18.7
2019-03-31T09:48:52.922Z,18.8
2019-03-31T09:49:54.311Z,18.9
2019-03-31T09:50:56.669Z,18.9
2019-03-31T09:51:57.068Z,18.8
2019-03-31T09:52:58.442Z,18.8
2019-03-31T09:53:59.823Z,18.7
2019-03-31T09:55:01.204Z,18.7
2019-03-31T09:56:02.601Z,18.8
2019-03-31T09:57:03.986Z,18.8
2019-03-31T09:58:05.354Z,18.8
2019-03-31T09:59:06.728Z,18.8
2019-03-31T10:00:08.110Z,18.8
2019-03-31T10:01:09.487Z,18.8
2019-03-31T10:02:10.865Z,18.8
2019-03-31T10:03:12.256Z,18.7
2019-03-31T10:04:13.627Z,18.6
2019-03-31T10:05:15.020Z,18.5
2019-03-31T10:06:29.280Z,18.5
2019-03-31T10:07:17.767Z,18.7
2019-03-31T10:08:21.738Z,18.8
2019-03-31T10:09:20.479Z,18.7
2019-03-31T10:10:21.861Z,18.7
2019-03-31T10:11:23.239Z,18.7
2019-03-31T10:12:24.618Z,18.7
2019-03-31T10:13:25.982Z,18.7
2019-03-31T10:14:27.368Z,19.0
2019-03-31T10:15:28.763Z,19.0
2019-03-31T10:16:30.142Z,19.2
2019-03-31T10:17:31.513Z,19.3
2019-03-31T10:18:32.889Z,19.4
2019-03-31T10:19:34.283Z,19.5
2019-03-31T10:20:35.682Z,19.5
2019-03-31T10:21:37.059Z,19.4
2019-03-31T10:22:38.439Z,19.3
2019-03-31T10:23:39.814Z,19.4
2019-03-31T10:24:41.212Z,19.4
2019-03-31T10:25:42.597Z,19.4
2019-03-31T10:26:43.963Z,19.6
2019-03-31T10:27:45.352Z,19.6
2019-03-31T10:28:46.727Z,19.5
2019-03-31T10:29:48.123Z,19.3
2019-03-31T10:30:49.483Z,19.6
2019-03-31T10:31:50.879Z,19.8
2019-03-31T10:32:52.259Z,19.9
2019-03-31T10:33:53.675Z,20.1
2019-03-31T10:34:55.052Z,20.2
2019-03-31T10:35:56.438Z,20.3
2019-03-31T10:36:57.809Z,20.4
2019-03-31T10:37:59.202Z,20.6
2019-03-31T10:39:00.599Z,20.7
2019-03-31T10:40:01.975Z,20.8
2019-03-31T10:41:03.360Z,20.8
2019-03-31T10:42:04.746Z,20.9
2019-03-31T10:43:06.123Z,20.9
2019-03-31T10:44:07.509Z,20.8
2019-03-31T10:45:08.889Z,20.9
2019-03-31T10:46:10.272Z,20.8
2019-03-31T10:47:11.658Z,20.8
2019-03-31T10:48:52.564Z,20.8
2019-03-31T10:49:53.934Z,20.8
2019-03-31T10:50:55.319Z,20.7
2019-03-31T10:51:56.700Z,20.8
2019-03-31T10:52:58.107Z,20.8
2019-03-31T10:53:59.467Z,20.9
2019-03-31T10:55:00.885Z,20.9
2019-03-31T10:56:02.205Z,20.9
2019-03-31T10:57:03.595Z,21.0
2019-03-31T10:58:04.984Z,21.1
2019-03-31T10:59:06.393Z,21.1
2019-03-31T11:00:07.849Z,21.0
2019-03-31T11:01:09.258Z,21.1
2019-03-31T11:02:10.650Z,21.1
2019-03-31T11:03:12.054Z,21.1
2019-03-31T11:04:13.438Z,21.1
2019-03-31T11:05:14.870Z,21.0
2019-03-31T11:06:16.285Z,21.0
2019-03-31T11:07:17.668Z,21.0
2019-03-31T11:08:19.075Z,21.1
2019-03-31T11:09:20.511Z,21.2
2019-03-31T11:10:21.889Z,21.4
2019-03-31T11:11:23.264Z,21.5
2019-03-31T11:12:24.663Z,21.7
2019-03-31T11:13:26.117Z,21.6
2019-03-31T11:14:27.369Z,21.8
2019-03-31T11:15:43.994Z,21.8
2019-03-31T11:16:45.370Z,21.8
2019-03-31T11:17:46.764Z,21.7
2019-03-31T11:18:48.473Z,21.9
2019-03-31T11:19:49.864Z,22.1
2019-03-31T11:20:51.261Z,22.0
2019-03-31T11:21:52.641Z,22.0
2019-03-31T11:22:54.021Z,22.2
2019-03-31T11:23:55.410Z,22.3
2019-03-31T11:24:56.788Z,22.4
2019-03-31T11:25:58.175Z,22.7
2019-03-31T11:26:59.556Z,22.8
2019-03-31T11:28:00.934Z,22.9
2019-03-31T11:29:02.323Z,22.8
2019-03-31T11:30:03.701Z,22.7
2019-03-31T11:31:05.086Z,22.6
2019-03-31T11:32:06.462Z,22.6
2019-03-31T11:33:07.959Z,22.5
2019-03-31T11:34:09.193Z,22.6
2019-03-31T11:35:10.578Z,22.7
2019-03-31T11:36:11.959Z,22.6
2019-03-31T11:37:14.050Z,22.9
2019-03-31T11:38:14.692Z,23.0
2019-03-31T11:39:16.457Z,23.1
2019-03-31T11:40:17.410Z,23.0
2019-03-31T11:41:18.799Z,22.9
2019-03-31T11:42:20.174Z,22.9
2019-03-31T11:43:21.570Z,22.9
2019-03-31T11:44:22.946Z,23.0
2019-03-31T11:45:24.328Z,22.9
2019-03-31T11:46:25.709Z,22.8
2019-03-31T11:47:27.104Z,23.1
2019-03-31T11:48:28.496Z,23.1
2019-03-31T11:49:29.873Z,23.1
2019-03-31T11:50:31.354Z,23.1
2019-03-31T11:51:32.601Z,23.1
2019-03-31T11:52:33.984Z,22.9
2019-03-31T11:53:35.372Z,23.0
2019-03-31T11:54:36.745Z,23.2
2019-03-31T11:55:38.133Z,23.4
2019-03-31T11:56:39.520Z,23.4
2019-03-31T11:57:40.898Z,23.6
2019-03-31T11:58:42.284Z,23.6
2019-03-31T11:59:43.662Z,23.7
2019-03-31T12:00:45.059Z,23.6
2019-03-31T12:01:46.444Z,23.6
2019-03-31T12:02:47.835Z,23.3
2019-03-31T12:03:49.224Z,23.2
2019-03-31T12:04:50.610Z,22.9
2019-03-31T12:05:52.001Z,22.7
2019-03-31T12:06:53.425Z,22.6
2019-03-31T12:07:54.775Z,22.6
2019-03-31T12:08:56.159Z,22.5
2019-03-31T12:09:57.538Z,22.4
2019-03-31T12:10:58.934Z,22.3
2019-03-31T12:12:00.316Z,22.1
2019-03-31T12:13:01.696Z,22.2
2019-03-31T12:14:03.087Z,22.3
2019-03-31T12:15:04.470Z,22.4
2019-03-31T12:16:05.844Z,22.4
2019-03-31T12:17:07.225Z,22.5
2019-03-31T12:18:08.609Z,22.5
2019-03-31T12:19:09.985Z,22.7
2019-03-31T12:20:11.391Z,22.9
2019-03-31T12:21:12.774Z,22.8
2019-03-31T12:22:14.154Z,22.7
2019-03-31T12:23:15.539Z,22.7
2019-03-31T12:24:16.923Z,22.5
2019-03-31T12:25:19.822Z,22.6
2019-03-31T12:26:19.649Z,22.7
2019-03-31T12:27:21.028Z,22.5
2019-03-31T12:28:22.419Z,22.4
2019-03-31T12:29:23.788Z,22.5
2019-03-31T12:30:25.182Z,22.6
2019-03-31T12:31:26.560Z,22.9
2019-03-31T12:32:27.950Z,23.0
2019-03-31T12:33:29.939Z,23.0
2019-03-31T12:34:31.834Z,23.1
2019-03-31T12:35:33.760Z,22.9
2019-03-31T12:36:36.124Z,22.6
2019-03-31T12:37:42.665Z,22.5
2019-03-31T12:38:39.803Z,22.3
2019-03-31T12:39:42.011Z,22.1
2019-03-31T12:40:44.121Z,21.9
2019-03-31T12:41:46.244Z,21.8
2019-03-31T12:42:48.290Z,21.8
2019-03-31T12:43:50.290Z,21.7
2019-03-31T12:44:52.919Z,21.4
2019-03-31T12:45:54.324Z,21.3
2019-03-31T12:46:56.951Z,21.2
2019-03-31T12:48:01.105Z,21.3
2019-03-31T12:49:00.885Z,21.3
2019-03-31T12:50:02.261Z,21.3
2019-03-31T12:51:04.689Z,21.3
2019-03-31T12:52:06.620Z,21.2
2019-03-31T12:53:08.534Z,21.3
2019-03-31T12:54:10.922Z,21.1
2019-03-31T12:55:13.163Z,21.1
2019-03-31T12:56:14.540Z,21.0
2019-03-31T12:57:16.815Z,21.0
2019-03-31T12:58:18.179Z,20.8
2019-03-31T12:59:19.556Z,20.7
2019-03-31T13:00:20.930Z,20.7
2019-03-31T13:01:22.979Z,20.5
2019-03-31T13:02:24.983Z,20.4
2019-03-31T13:03:26.937Z,20.5
2019-03-31T13:04:29.315Z,20.4
2019-03-31T13:05:31.233Z,20.4
2019-03-31T13:06:33.598Z,20.3
2019-03-31T13:07:35.935Z,20.4
2019-03-31T13:08:37.312Z,20.3
2019-03-31T13:09:39.565Z,20.3
2019-03-31T13:10:41.770Z,20.3
2019-03-31T13:11:43.925Z,20.3
2019-03-31T13:12:47.422Z,20.3
2019-03-31T13:13:49.541Z,20.2
2019-03-31T13:14:51.630Z,20.2
2019-03-31T13:15:53.670Z,20.3
2019-03-31T13:16:55.655Z,20.3
2019-03-31T13:17:57.585Z,20.3
2019-03-31T13:18:59.936Z,20.3
2019-03-31T13:20:02.276Z,20.3
2019-03-31T13:21:04.575Z,20.2
2019-03-31T13:22:05.949Z,20.3
2019-03-31T13:23:08.146Z,20.2
2019-03-31T13:24:10.304Z,20.3
2019-03-31T13:25:12.372Z,20.2
2019-03-31T13:26:14.367Z,20.2
2019-03-31T13:27:16.371Z,20.2
2019-03-31T13:28:18.961Z,20.1
2019-03-31T13:29:20.340Z,20.1
2019-03-31T13:30:22.338Z,20.1
2019-03-31T13:31:24.250Z,20.1
2019-03-31T13:32:26.151Z,20.0
2019-03-31T13:33:28.511Z,20.0
2019-03-31T13:34:30.802Z,19.9
2019-03-31T13:35:33.002Z,20.0
2019-03-31T13:36:35.187Z,19.9
2019-03-31T13:37:36.547Z,20.0
2019-03-31T13:38:38.590Z,20.0
2019-03-31T13:39:41.247Z,20.0
2019-03-31T13:40:43.346Z,20.0
2019-03-31T13:41:47.153Z,19.9
2019-03-31T13:42:47.294Z,19.9
2019-03-31T13:43:50.582Z,19.9
2019-03-31T13:44:52.575Z,19.8
2019-03-31T13:46:55.302Z,19.9
2019-03-31T13:47:58.830Z,19.8
2019-03-31T13:48:59.968Z,19.8
2019-03-31T13:50:01.337Z,19.8
2019-03-31T13:51:03.635Z,19.8
2019-03-31T13:52:05.746Z,19.8
2019-03-31T13:53:07.962Z,19.9
2019-03-31T13:54:09.339Z,19.9
2019-03-31T13:55:11.542Z,19.9
2019-03-31T13:56:13.882Z,19.9
2019-03-31T13:57:15.675Z,20.0
2019-03-31T13:58:18.945Z,20.0
2019-03-31T13:59:19.381Z,20.1
2019-03-31T14:00:25.010Z,20.0
2019-03-31T14:01:22.637Z,20.0
2019-03-31T14:02:23.982Z,20.1
2019-03-31T14:03:26.252Z,20.1
2019-03-31T14:04:28.490Z,20.2
2019-03-31T14:05:29.878Z,20.2
2019-03-31T14:06:32.647Z,20.2